GMTA/AHU METAR and TAF weather

Enter ICAO airport designator
Station Type Date Time Source
GMTA METAR 2024/04/23 05:00 UTC NOAA

GMTA 230500Z VRB01KT CAVOK 12/06 Q1012 NOSIG


Station Type Date Time Source
GMTA Decoded METAR 2024/04/23 05:00 UTC NOAA

Al Hoceima, Morocco (GMTA) 35-11N 003-51W 14M
Apr 23, 2024 - 01:00 AM EDT / 2024.04.23 0500 UTC
Wind: Variable at 1 MPH (1 KT):0
Visibility: greater than 7 mile(s):0
Temperature: 53 F (12 C)
Dew Point: 42 F (6 C)
Relative Humidity: 66%
Pressure (altimeter): 29.88 in. Hg (1012 hPa)
ob: GMTA 230500Z VRB01KT CAVOK 12/06 Q1012 NOSIG
cycle: 5

Station Type Date Time Source
GMTA TAF 2024/04/23 06:18 UTC NOAA